Time;durP1;ratioP1;P1;durP2;ratioP2;P2;SDS_P1;SDS_P2;PMS_P1;PMS_P2;Temp;Humidity;BMP_temperature;BMP_pressure;BME280_temperature;BME280_humidity;BME280_pressure;Samples;Min_cycle;Max_cycle;Signal;HPM_P1;HPM_P2
2021/04/24 00:00:27;;;;;;;24.70;10.60;;;;;;;4.00;60.43;99595.84;114838;1200;103066;-72
2021/04/24 00:03:14;;;;;;;23.55;9.65;;;;;;;3.99;60.58;99594.11;115004;1202;103168;-73
2021/04/24 00:05:44;;;;;;;23.50;10.40;;;;;;;3.97;61.03;99597.70;114924;1203;103075;-73
2021/04/24 00:08:15;;;;;;;23.53;9.87;;;;;;;3.95;60.45;99592.51;114967;1202;103072;-71
2021/04/24 00:10:46;;;;;;;23.07;9.60;;;;;;;3.94;60.89;99592.55;114732;1203;103172;-74
2021/04/24 00:13:15;;;;;;;24.57;10.23;;;;;;;3.92;60.98;99587.36;114930;1202;103066;-73
2021/04/24 00:15:43;;;;;;;23.57;10.43;;;;;;;3.86;61.11;99580.55;114901;1202;103078;-72
2021/04/24 00:18:12;;;;;;;22.55;9.70;;;;;;;3.85;60.66;99584.10;114903;1203;103049;-72
2021/04/24 00:20:40;;;;;;;22.20;10.00;;;;;;;3.82;60.69;99576.32;114947;1202;103539;-72
2021/04/24 00:23:08;;;;;;;22.77;9.83;;;;;;;3.81;60.62;99584.25;114957;1202;103197;-72
2021/04/24 00:25:36;;;;;;;26.20;10.50;;;;;;;3.79;60.70;99583.45;115045;1202;103146;-71
2021/04/24 00:28:04;;;;;;;27.55;10.75;;;;;;;3.76;60.38;99581.80;114969;1202;103175;-72
2021/04/24 00:30:32;;;;;;;24.17;10.37;;;;;;;3.75;61.36;99587.10;114991;1203;103504;-72
2021/04/24 00:32:59;;;;;;;28.30;11.90;;;;;;;3.72;61.23;99583.67;114988;1202;103072;-73
2021/04/24 00:35:27;;;;;;;25.30;10.70;;;;;;;3.70;61.19;99587.28;114953;1202;103091;-74
2021/04/24 00:37:55;;;;;;;27.20;10.50;;;;;;;3.67;60.79;99588.23;114959;1203;103567;-72
2021/04/24 00:40:22;;;;;;;25.60;11.30;;;;;;;3.65;60.90;99586.58;114992;1202;103072;-74
2021/04/24 00:42:51;;;;;;;25.80;10.85;;;;;;;3.65;60.94;99591.84;114835;1203;103104;-73
2021/04/24 00:45:23;;;;;;;25.55;10.95;;;;;;;3.60;60.87;99584.13;114878;1202;103072;-71
2021/04/24 00:47:53;;;;;;;25.70;11.80;;;;;;;3.58;60.98;99586.80;114859;1202;103190;-73
2021/04/24 00:50:23;;;;;;;26.65;11.60;;;;;;;3.56;60.93;99588.63;114739;1203;103130;-73
2021/04/24 00:52:51;;;;;;;27.40;11.43;;;;;;;3.54;60.70;99592.23;114987;1203;103149;-72
2021/04/24 00:55:18;;;;;;;25.25;10.95;;;;;;;3.50;61.25;99596.73;114764;1203;103123;-73
2021/04/24 00:57:46;;;;;;;25.93;11.87;;;;;;;3.48;61.42;99601.18;114805;1202;103203;-73
2021/04/24 01:00:15;;;;;;;29.70;13.23;;;;;;;3.46;60.99;99595.14;114834;1202;103046;-72
2021/04/24 01:02:43;;;;;;;26.15;13.00;;;;;;;3.44;61.08;99591.70;114914;1202;103161;-72
2021/04/24 01:05:25;;;;;;;26.10;12.10;;;;;;;3.43;60.88;99588.20;114940;1202;103133;-71
2021/04/24 01:07:52;;;;;;;29.10;12.85;;;;;;;3.42;60.92;99585.64;114906;1202;103143;-73
2021/04/24 01:10:21;;;;;;;28.35;12.35;;;;;;;3.42;61.18;99586.48;114998;1201;103146;-72
2021/04/24 01:12:48;;;;;;;26.23;12.37;;;;;;;3.42;61.32;99580.38;114972;1202;103149;-72
2021/04/24 01:15:18;;;;;;;27.30;11.85;;;;;;;3.43;61.26;99585.57;114952;1202;103196;-72
2021/04/24 01:17:46;;;;;;;23.65;11.75;;;;;;;3.42;61.27;99569.86;114789;1203;103367;-71
2021/04/24 01:20:15;;;;;;;27.60;12.93;;;;;;;3.42;61.97;99583.85;114785;1202;103155;-72
2021/04/24 01:22:46;;;;;;;27.07;12.37;;;;;;;3.44;61.56;99581.19;116637;1202;100915;-72
2021/04/24 01:25:16;;;;;;;25.65;12.15;;;;;;;3.46;61.51;99579.36;116631;1201;101072;-71
2021/04/24 01:27:47;;;;;;;24.23;12.17;;;;;;;3.48;61.96;99584.55;116650;1202;100826;-71
2021/04/24 01:30:17;;;;;;;30.10;13.20;;;;;;;3.49;61.58;99578.38;116133;1202;101548;-73
2021/04/24 01:32:44;;;;;;;26.15;12.15;;;;;;;3.50;61.41;99582.73;114842;1203;103146;-72
2021/04/24 01:35:19;;;;;;;28.87;12.60;;;;;;;3.50;62.26;99580.94;114821;1203;103066;-72
2021/04/24 01:37:46;;;;;;;26.53;13.40;;;;;;;3.54;61.50;99573.83;114922;1203;103046;-72
2021/04/24 01:40:17;;;;;;;26.77;13.03;;;;;;;3.54;62.24;99566.77;114878;1203;103178;-72
2021/04/24 01:42:46;;;;;;;30.85;12.90;;;;;;;3.54;62.02;99561.52;114629;1203;103190;-73
2021/04/24 01:45:16;;;;;;;29.70;13.73;;;;;;;3.57;61.70;99560.56;114693;1203;102900;-73
2021/04/24 01:47:45;;;;;;;36.50;15.93;;;;;;;3.57;62.01;99553.52;114938;1201;103142;-73
2021/04/24 01:50:28;;;;;;;31.30;14.40;;;;;;;3.58;62.08;99555.23;114951;1203;103043;-71
2021/04/24 01:52:56;;;;;;;29.90;13.40;;;;;;;3.60;61.81;99554.31;114923;1202;103038;-71
2021/04/24 01:55:28;;;;;;;31.45;13.80;;;;;;;3.60;62.21;99557.83;114682;1202;103207;-72
2021/04/24 01:57:57;;;;;;;28.50;14.03;;;;;;;3.60;62.24;99549.06;114606;1202;103146;-70
2021/04/24 02:00:32;;;;;;;27.43;13.73;;;;;;;3.59;61.99;99540.32;114633;1203;103677;-72
2021/04/24 02:03:03;;;;;;;28.57;13.23;;;;;;;3.64;62.04;99538.39;114682;1202;103075;-71
2021/04/24 02:05:30;;;;;;;29.77;13.77;;;;;;;3.63;62.08;99541.93;114932;1202;103075;-71
2021/04/24 02:08:04;;;;;;;31.70;14.40;;;;;;;3.63;61.95;99539.30;114684;1203;103287;-71
2021/04/24 02:10:33;;;;;;;32.93;14.60;;;;;;;3.63;62.02;99551.58;114661;1202;103047;-70
2021/04/24 02:13:04;;;;;;;26.95;14.65;;;;;;;3.63;62.61;99546.31;114978;1201;103070;-70
2021/04/24 02:15:32;;;;;;;30.60;14.10;;;;;;;3.64;62.49;99545.41;114676;1202;103159;-72
2021/04/24 02:18:00;;;;;;;29.23;14.23;;;;;;;3.64;62.63;99537.52;114696;1203;103152;-70
2021/04/24 02:20:27;;;;;;;33.35;15.95;;;;;;;3.62;62.70;99534.95;114702;1203;103082;-71
2021/04/24 02:22:55;;;;;;;29.80;13.70;;;;;;;3.64;62.64;99535.75;114679;1203;103072;-71
2021/04/24 02:25:22;;;;;;;30.83;15.17;;;;;;;3.63;61.86;99531.41;114697;1203;103104;-71
2021/04/24 02:27:51;;;;;;;32.00;14.80;;;;;;;3.63;62.65;99530.53;114709;1203;103116;-71
2021/04/24 02:30:20;;;;;;;31.00;14.20;;;;;;;3.63;62.17;99531.41;114727;1202;103153;-71
2021/04/24 02:32:50;;;;;;;31.07;14.90;;;;;;;3.64;62.87;99532.25;114676;1202;103203;-71
2021/04/24 02:35:28;;;;;;;31.20;15.75;;;;;;;3.65;62.38;99536.59;114700;1202;103072;-71
2021/04/24 02:37:55;;;;;;;32.07;14.97;;;;;;;3.65;62.44;99528.70;114991;1202;103089;-71
2021/04/24 02:40:23;;;;;;;30.93;15.27;;;;;;;3.66;62.48;99533.92;114943;1203;103172;-71
2021/04/24 02:42:50;;;;;;;31.10;15.03;;;;;;;3.66;62.32;99531.30;114695;1203;103556;-70
2021/04/24 02:45:18;;;;;;;35.73;15.37;;;;;;;3.66;62.94;99528.66;114925;1202;103146;-71
2021/04/24 02:47:46;;;;;;;30.13;13.53;;;;;;;3.65;62.44;99532.21;114861;1203;103146;-72
2021/04/24 02:50:18;;;;;;;33.53;14.93;;;;;;;3.65;62.56;99526.08;114717;1202;103137;-71
2021/04/24 02:52:46;;;;;;;34.37;15.13;;;;;;;3.64;62.50;99524.36;114951;1202;103082;-72
2021/04/24 02:55:16;;;;;;;32.23;14.20;;;;;;;3.65;62.28;99521.69;114689;1203;103155;-73
2021/04/24 02:57:44;;;;;;;29.40;14.20;;;;;;;3.65;62.44;99523.45;115014;1202;103190;-71
2021/04/24 03:00:15;;;;;;;31.43;14.50;;;;;;;3.65;62.69;99526.08;114684;1203;103134;-71
2021/04/24 03:02:42;;;;;;;32.90;15.00;;;;;;;3.67;63.37;99524.25;114996;1203;103083;-71
2021/04/24 03:05:15;;;;;;;31.30;15.20;;;;;;;3.70;62.76;99511.82;114927;1203;103146;-71
2021/04/24 03:07:44;;;;;;;30.65;15.20;;;;;;;3.74;63.36;99512.58;115019;1202;103140;-71
2021/04/24 03:10:13;;;;;;;33.23;14.47;;;;;;;3.74;63.49;99509.95;114940;1203;103172;-71
2021/04/24 03:12:41;;;;;;;29.35;14.30;;;;;;;3.77;62.88;99512.47;114861;1203;103159;-71
2021/04/24 03:15:09;;;;;;;32.00;14.65;;;;;;;3.82;62.82;99517.55;114825;1203;103155;-71
2021/04/24 03:17:36;;;;;;;31.20;14.95;;;;;;;3.85;62.87;99513.05;114922;1201;103038;-72
2021/04/24 03:20:07;;;;;;;30.85;14.15;;;;;;;3.88;63.00;99514.69;114637;1202;103066;-73
2021/04/24 03:22:34;;;;;;;32.05;14.55;;;;;;;3.90;62.78;99514.62;115032;1202;103068;-73
2021/04/24 03:25:04;;;;;;;31.10;12.95;;;;;;;3.92;63.43;99518.92;114936;1203;103047;-72
2021/04/24 03:27:32;;;;;;;30.40;14.33;;;;;;;3.93;62.66;99517.14;114849;1202;103212;-71
2021/04/24 03:30:00;;;;;;;27.80;13.17;;;;;;;3.94;63.54;99521.48;114847;1203;103143;-71
2021/04/24 03:32:27;;;;;;;29.20;13.97;;;;;;;3.94;63.49;99524.11;115030;1202;103034;-71
2021/04/24 03:34:55;;;;;;;32.33;13.83;;;;;;;3.95;62.92;99523.20;114850;1201;103501;-71
2021/04/24 03:37:22;;;;;;;31.10;13.70;;;;;;;3.97;63.65;99516.10;114949;1203;103171;-71
2021/04/24 03:39:49;;;;;;;29.80;13.90;;;;;;;3.98;63.37;99528.34;114817;1202;103053;-72
2021/04/24 03:42:17;;;;;;;28.60;13.10;;;;;;;3.98;63.51;99523.09;114976;1203;103152;-72
2021/04/24 03:44:44;;;;;;;32.40;15.90;;;;;;;3.99;63.20;99530.94;114978;1202;101534;-71
2021/04/24 03:47:14;;;;;;;30.23;14.60;;;;;;;4.02;63.57;99525.56;114862;1202;103176;-72
2021/04/24 03:49:42;;;;;;;30.90;15.00;;;;;;;4.03;63.55;99521.14;114913;1203;103188;-72
2021/04/24 03:52:09;;;;;;;29.40;14.05;;;;;;;4.04;63.07;99525.48;114891;1202;103075;-71
2021/04/24 03:54:37;;;;;;;29.83;14.97;;;;;;;4.06;63.65;99517.55;114830;1202;103057;-72
2021/04/24 03:57:04;;;;;;;29.07;15.67;;;;;;;4.08;63.42;99521.82;114897;1203;103191;-72
2021/04/24 03:59:31;;;;;;;32.50;15.10;;;;;;;4.12;63.78;99522.55;114616;1201;103198;-72
2021/04/24 04:01:59;;;;;;;33.23;15.50;;;;;;;4.15;62.98;99532.97;114809;1202;103143;-72
2021/04/24 04:04:26;;;;;;;34.00;16.80;;;;;;;4.16;63.97;99522.39;114924;1203;103047;-73
2021/04/24 04:06:53;;;;;;;32.23;15.20;;;;;;;4.21;63.78;99524.83;114591;1203;103242;-73
2021/04/24 04:09:21;;;;;;;33.88;16.15;;;;;;;4.23;63.72;99532.69;114889;1202;103158;-71
2021/04/24 04:11:49;;;;;;;32.90;16.20;;;;;;;4.28;63.54;99523.67;114927;1203;103078;-71
2021/04/24 04:14:16;;;;;;;29.90;14.43;;;;;;;4.31;63.68;99534.09;114778;1203;103507;-71
2021/04/24 04:16:44;;;;;;;33.65;14.60;;;;;;;4.35;63.81;99531.34;114881;1202;103120;-72
2021/04/24 04:19:11;;;;;;;33.75;16.10;;;;;;;4.36;63.08;99535.69;114940;1202;103076;-71
2021/04/24 04:21:38;;;;;;;33.37;15.53;;;;;;;4.38;63.86;99528.59;114928;1203;103181;-72
2021/04/24 04:24:06;;;;;;;30.73;15.27;;;;;;;4.40;63.90;99530.23;114834;1202;103187;-72
2021/04/24 04:26:33;;;;;;;32.20;15.65;;;;;;;4.42;63.58;99530.18;114774;1202;103031;-72
2021/04/24 04:29:01;;;;;;;33.58;15.45;;;;;;;4.45;63.63;99544.08;114731;1203;103129;-72
2021/04/24 04:31:28;;;;;;;30.43;14.55;;;;;;;4.44;63.63;99536.25;114884;1202;103082;-72
2021/04/24 04:34:00;;;;;;;30.13;13.90;;;;;;;4.42;63.77;99546.83;114822;1203;103200;-72
2021/04/24 04:36:27;;;;;;;36.60;14.45;;;;;;;4.40;63.76;99539.92;114614;1202;103198;-72
2021/04/24 04:38:54;;;;;;;31.40;14.60;;;;;;;4.42;63.36;99543.35;114699;1202;103162;-72
2021/04/24 04:41:26;;;;;;;36.87;15.17;;;;;;;4.42;64.03;99541.56;114908;1203;103049;-72
2021/04/24 04:43:54;;;;;;;32.57;14.67;;;;;;;4.43;64.10;99543.28;114811;1202;103041;-71
2021/04/24 04:46:21;;;;;;;32.33;15.13;;;;;;;4.46;63.61;99544.95;114778;1202;103148;-72
2021/04/24 04:48:49;;;;;;;34.97;14.60;;;;;;;4.46;63.22;99556.33;114840;1203;103191;-71
2021/04/24 04:51:16;;;;;;;34.50;14.20;;;;;;;4.49;63.81;99563.23;114731;1203;103161;-72
2021/04/24 04:53:44;;;;;;;30.57;13.73;;;;;;;4.51;63.93;99553.50;114779;1203;103050;-72
2021/04/24 04:56:13;;;;;;;33.40;14.50;;;;;;;4.54;63.56;99555.17;114937;1202;103043;-72
2021/04/24 04:58:40;;;;;;;32.55;15.40;;;;;;;4.57;63.75;99555.89;114910;1202;103046;-72
2021/04/24 05:01:11;;;;;;;31.47;15.60;;;;;;;4.60;64.03;99558.41;114865;1203;103195;-72
2021/04/24 05:03:39;;;;;;;32.23;14.90;;;;;;;4.61;64.07;99556.64;114922;1203;103076;-72
2021/04/24 05:06:08;;;;;;;33.17;15.43;;;;;;;4.64;64.05;99553.89;114922;1202;103149;-73
2021/04/24 05:08:36;;;;;;;31.10;14.47;;;;;;;4.68;64.09;99544.06;114603;1202;103139;-72
2021/04/24 05:11:05;;;;;;;28.50;14.35;;;;;;;4.70;63.52;99535.16;114782;1201;103139;-74
2021/04/24 05:13:32;;;;;;;31.20;14.85;;;;;;;4.76;63.44;99544.62;114852;1203;103187;-73
2021/04/24 05:16:00;;;;;;;35.57;13.47;;;;;;;4.84;64.08;99542.53;114335;1202;103043;-71
2021/04/24 05:18:28;;;;;;;35.83;13.80;;;;;;;4.88;63.64;99541.48;114656;1202;103752;-72
2021/04/24 05:20:55;;;;;;;31.20;15.30;;;;;;;4.95;64.17;99547.34;114824;1203;103128;-72
2021/04/24 05:23:23;;;;;;;30.00;14.73;;;;;;;5.01;63.76;99549.73;114853;1202;103041;-73
2021/04/24 05:25:50;;;;;;;31.60;15.20;;;;;;;5.05;63.65;99558.36;114862;1203;103054;-72
2021/04/24 05:28:18;;;;;;;34.27;14.43;;;;;;;5.08;63.96;99571.41;114804;1203;103070;-73
2021/04/24 05:30:45;;;;;;;30.20;13.75;;;;;;;5.10;63.89;99579.24;114746;1203;103175;-74
2021/04/24 05:33:12;;;;;;;35.43;15.93;;;;;;;5.06;64.06;99596.98;114844;1203;103165;-72
2021/04/24 05:35:39;;;;;;;33.25;15.08;;;;;;;5.00;63.40;99620.97;114890;1203;103043;-72
2021/04/24 05:38:07;;;;;;;30.27;13.33;;;;;;;4.95;63.95;99605.34;114867;1203;103148;-73
2021/04/24 05:40:36;;;;;;;25.50;10.45;;;;;;;4.81;63.91;99608.55;114869;1203;103161;-72
2021/04/24 05:43:06;;;;;;;21.05;8.05;;;;;;;4.72;63.44;99599.21;114847;1203;103146;-75
2021/04/24 05:45:33;;;;;;;19.97;7.70;;;;;;;4.60;63.77;99592.66;114739;1203;103078;-74
2021/04/24 05:48:00;;;;;;;27.50;10.70;;;;;;;4.52;63.50;99581.56;114891;1203;103146;-71
2021/04/24 05:50:28;;;;;;;30.40;12.17;;;;;;;4.44;63.82;99587.14;114900;1202;103182;-72
2021/04/24 05:52:55;;;;;;;26.15;11.45;;;;;;;4.40;63.66;99592.59;114837;1203;103088;-73
2021/04/24 05:55:24;;;;;;;30.90;12.87;;;;;;;4.34;63.38;99591.05;114696;1202;103098;-73
2021/04/24 05:57:51;;;;;;;30.50;13.37;;;;;;;4.34;64.12;99593.67;114865;1203;103079;-72
2021/04/24 06:00:21;;;;;;;27.13;12.80;;;;;;;4.31;63.63;99585.89;114925;1201;103082;-74
2021/04/24 06:02:49;;;;;;;31.93;13.50;;;;;;;4.32;63.43;99590.23;114855;1202;103188;-73
2021/04/24 06:05:18;;;;;;;32.23;13.77;;;;;;;4.36;63.46;99583.09;114945;1203;103012;-77
2021/04/24 06:07:45;;;;;;;27.65;13.05;;;;;;;4.39;63.83;99572.45;114674;1201;103068;-75
2021/04/24 06:10:15;;;;;;;30.45;13.70;;;;;;;4.41;64.21;99576.72;114907;1201;103577;-76
2021/04/24 06:12:47;;;;;;;29.53;13.03;;;;;;;4.46;63.81;99563.39;114867;1203;103040;-74
2021/04/24 06:15:17;;;;;;;24.03;11.53;;;;;;;4.49;64.28;99565.88;114880;1203;103184;-70
2021/04/24 06:17:44;;;;;;;29.07;13.63;;;;;;;4.51;63.98;99571.09;114675;1202;103085;-72
2021/04/24 06:20:13;;;;;;;31.05;12.75;;;;;;;4.57;64.14;99573.49;114951;1203;103117;-71
2021/04/24 06:22:41;;;;;;;32.47;14.13;;;;;;;4.62;64.01;99574.17;114915;1202;103069;-72
2021/04/24 06:25:12;;;;;;;29.03;14.20;;;;;;;4.67;64.29;99576.61;114868;1202;103178;-72
2021/04/24 06:27:42;;;;;;;28.30;13.40;;;;;;;4.71;64.12;99572.94;114868;1201;103149;-73
2021/04/24 06:30:11;;;;;;;30.10;13.00;;;;;;;4.76;64.52;99577.09;114846;1203;103147;-72
2021/04/24 06:32:41;;;;;;;30.33;14.00;;;;;;;4.86;64.10;99576.72;114945;1202;103044;-72
2021/04/24 06:35:10;;;;;;;31.45;13.55;;;;;;;4.93;64.63;99575.55;114907;1203;103058;-73
2021/04/24 06:37:38;;;;;;;31.80;13.10;;;;;;;5.01;64.54;99577.86;114915;1203;103069;-74
2021/04/24 06:40:08;;;;;;;28.27;11.97;;;;;;;5.06;64.69;99581.16;114914;1203;103203;-74
2021/04/24 06:42:36;;;;;;;28.23;13.97;;;;;;;5.12;64.27;99583.55;114877;1202;103156;-74
2021/04/24 06:45:06;;;;;;;29.55;13.35;;;;;;;5.18;64.57;99585.94;114921;1203;103066;-72
2021/04/24 06:47:33;;;;;;;31.80;13.60;;;;;;;5.30;64.65;99584.55;114707;1202;103075;-72
2021/04/24 06:50:01;;;;;;;28.83;14.07;;;;;;;5.54;64.58;99588.84;114666;1202;103153;-73
2021/04/24 06:52:28;;;;;;;32.53;15.00;;;;;;;5.71;64.47;99580.17;114915;1203;103581;-73
2021/04/24 06:54:56;;;;;;;30.50;11.03;;;;;;;5.83;64.52;99597.24;114945;1202;103145;-71
2021/04/24 06:57:24;;;;;;;27.07;11.33;;;;;;;5.89;64.45;99592.56;114931;1202;104642;-75
2021/04/24 06:59:51;;;;;;;29.40;11.00;;;;;;;5.96;64.61;99591.33;114912;1203;103095;-76
2021/04/24 07:02:19;;;;;;;27.43;11.97;;;;;;;6.03;64.52;99593.73;114724;1203;103139;-74
2021/04/24 07:04:46;;;;;;;28.57;11.23;;;;;;;6.07;64.56;99590.03;114946;1203;103213;-76
2021/04/24 07:07:16;;;;;;;25.60;11.63;;;;;;;6.16;64.48;99584.33;114645;1203;103082;-77
2021/04/24 07:09:45;;;;;;;27.10;12.60;;;;;;;6.94;63.52;99578.02;115027;1203;103092;-75
2021/04/24 07:12:13;;;;;;;26.85;12.00;;;;;;;9.29;61.44;99580.41;114924;1202;103072;-76
2021/04/24 07:14:40;;;;;;;25.27;11.53;;;;;;;11.03;61.56;99569.61;114952;1202;103043;-76
2021/04/24 07:17:09;;;;;;;24.55;10.25;;;;;;;12.86;60.71;99570.22;114924;1202;103092;-73
2021/04/24 07:19:36;;;;;;;25.80;10.93;;;;;;;14.61;61.08;99560.35;114931;1203;103140;-75
2021/04/24 07:22:05;;;;;;;23.90;11.00;;;;;;;16.24;60.80;99552.88;114938;1203;103076;-81
2021/04/24 07:24:33;;;;;;;26.07;12.13;;;;;;;17.04;60.96;99557.41;115037;1202;103155;-74
2021/04/24 07:27:01;;;;;;;27.70;12.47;;;;;;;17.99;60.80;99563.77;114888;1202;103069;-74
2021/04/24 07:29:28;;;;;;;26.75;13.05;;;;;;;18.05;61.24;99562.35;114891;1203;103075;-72
2021/04/24 07:31:56;;;;;;;26.20;12.65;;;;;;;19.07;60.33;99556.06;114862;1203;103287;-72
2021/04/24 07:34:23;;;;;;;24.90;12.10;;;;;;;20.27;60.56;99559.08;114886;1203;103043;-71
2021/04/24 07:36:51;;;;;;;24.13;11.60;;;;;;;20.94;60.71;99554.73;114878;1202;103117;-75
2021/04/24 07:39:18;;;;;;;25.75;10.70;;;;;;;20.90;60.56;99567.72;114856;1202;103095;-72
2021/04/24 07:41:45;;;;;;;19.40;8.20;;;;;;;21.59;59.44;99563.01;114849;1202;103160;-76
2021/04/24 07:44:13;;;;;;;20.00;7.70;;;;;;;21.70;59.34;99568.94;114632;1202;101941;-74
2021/04/24 07:46:40;;;;;;;19.93;8.08;;;;;;;21.70;59.23;99563.52;114845;1202;103101;-74
2021/04/24 07:49:07;;;;;;;17.63;6.95;;;;;;;21.35;59.25;99570.11;114816;1203;103076;-73
2021/04/24 07:51:35;;;;;;;16.75;6.75;;;;;;;21.92;58.62;99561.09;114837;1202;103153;-73
2021/04/24 07:54:03;;;;;;;24.80;6.97;;;;;;;21.63;59.23;99564.36;114852;1202;103528;-72
2021/04/24 07:56:30;;;;;;;19.93;6.67;;;;;;;20.33;60.34;99571.94;114648;1202;103280;-71
2021/04/24 07:58:58;;;;;;;15.83;6.17;;;;;;;19.92;59.53;99559.08;114702;1203;103118;-72
2021/04/24 08:01:25;;;;;;;14.40;5.75;;;;;;;18.83;59.99;99570.98;114908;1203;103034;-73
2021/04/24 08:03:52;;;;;;;11.37;4.80;;;;;;;19.08;58.24;99573.94;114855;1202;103573;-73
2021/04/24 08:06:20;;;;;;;14.78;5.18;;;;;;;19.54;57.41;99571.96;114840;1202;103166;-72
2021/04/24 08:08:50;;;;;;;12.70;3.83;;;;;;;20.38;56.48;99576.84;114813;1202;103044;-73
2021/04/24 08:11:18;;;;;;;9.45;3.50;;;;;;;20.72;56.21;99562.41;114796;1203;103068;-73
2021/04/24 08:13:46;;;;;;;10.07;2.97;;;;;;;21.18;55.62;99575.54;114666;1202;103187;-71
2021/04/24 08:16:14;;;;;;;7.90;3.07;;;;;;;21.13;55.01;99575.20;114899;1203;103110;-72
2021/04/24 08:18:42;;;;;;;7.17;3.20;;;;;;;21.40;55.45;99568.58;114876;1202;103077;-72
2021/04/24 08:21:11;;;;;;;15.87;4.10;;;;;;;21.84;55.47;99574.64;114883;1202;103060;-72
2021/04/24 08:23:39;;;;;;;10.55;3.40;;;;;;;22.33;54.91;99564.67;114898;1202;103223;-72
2021/04/24 08:26:06;;;;;;;7.00;3.15;;;;;;;22.74;54.81;99568.06;114815;1203;103097;-72
2021/04/24 08:28:34;;;;;;;8.30;3.10;;;;;;;23.07;54.04;99560.72;114921;1203;103161;-74
2021/04/24 08:31:01;;;;;;;8.15;2.70;;;;;;;22.88;54.45;99569.15;114842;1203;103587;-70
2021/04/24 08:33:29;;;;;;;6.97;2.67;;;;;;;22.31;53.97;99562.98;114841;1203;103360;-72
2021/04/24 08:35:57;;;;;;;8.80;3.20;;;;;;;22.31;54.11;99556.73;114920;1203;103082;-70
2021/04/24 08:38:25;;;;;;;8.00;3.40;;;;;;;22.61;53.89;99573.20;114823;1202;103095;-72
2021/04/24 08:40:52;;;;;;;7.95;3.40;;;;;;;22.71;53.24;99567.55;114898;1203;103618;-72
2021/04/24 08:43:24;;;;;;;7.85;3.50;;;;;;;22.53;52.83;99576.81;114857;1203;103081;-72
2021/04/24 08:45:57;;;;;;;9.80;3.17;;;;;;;21.85;52.53;99588.03;114820;1203;103188;-74
2021/04/24 08:48:24;;;;;;;6.20;3.10;;;;;;;21.13;52.55;99588.72;114940;1203;103152;-74
2021/04/24 08:50:57;;;;;;;8.30;3.17;;;;;;;21.10;51.81;99579.06;114900;1203;103175;-74
2021/04/24 08:53:25;;;;;;;9.45;2.90;;;;;;;20.78;50.41;99578.01;114701;1201;103772;-72
2021/04/24 08:55:52;;;;;;;6.35;3.00;;;;;;;19.78;50.72;99586.61;114692;1203;102993;-74
2021/04/24 08:58:21;;;;;;;7.07;2.77;;;;;;;18.98;50.47;99580.25;114640;1202;103107;-73
2021/04/24 09:00:51;;;;;;;9.60;3.60;;;;;;;18.26;50.20;99580.10;114813;1202;103034;-73
2021/04/24 09:03:21;;;;;;;6.00;2.83;;;;;;;17.42;48.68;99582.58;114845;1203;103155;-73
2021/04/24 09:05:51;;;;;;;7.50;3.27;;;;;;;16.35;49.04;99595.73;114860;1203;103072;-74
2021/04/24 09:08:25;;;;;;;7.60;3.20;;;;;;;16.30;48.33;99589.08;114741;1203;103098;-73
2021/04/24 09:11:05;;;;;;;6.07;2.90;;;;;;;16.93;48.45;99579.88;114841;1201;103098;-76
2021/04/24 09:13:33;;;;;;;8.60;3.00;;;;;;;17.50;48.10;99579.19;114854;1203;103095;-80
2021/04/24 09:16:02;;;;;;;7.83;3.00;;;;;;;17.94;47.53;99592.09;114862;1202;103185;-73
2021/04/24 09:18:30;;;;;;;9.57;3.57;;;;;;;18.36;47.99;99580.05;114831;1203;103535;-80
2021/04/24 09:21:00;;;;;;;9.70;3.10;;;;;;;17.83;47.83;99585.06;116462;1201;101873;-71
2021/04/24 09:23:35;;;;;;;7.33;3.00;;;;;;;17.07;48.02;99584.88;116478;1201;101290;-73
2021/04/24 09:26:09;;;;;;;8.80;3.10;;;;;;;16.31;46.47;99580.88;116533;1201;101239;-73
2021/04/24 09:28:46;;;;;;;12.90;4.30;;;;;;;15.30;47.10;99584.12;116049;1203;103145;-75
2021/04/24 09:31:21;;;;;;;10.40;3.80;;;;;;;14.83;46.61;99575.53;114985;1202;103080;-74
2021/04/24 09:33:52;;;;;;;9.85;3.50;;;;;;;14.73;46.57;99592.36;114934;1203;103030;-75
2021/04/24 09:36:20;;;;;;;7.47;2.90;;;;;;;15.31;46.50;99584.95;114931;1203;103200;-75
2021/04/24 09:38:50;;;;;;;5.50;2.57;;;;;;;15.40;46.15;99597.58;114927;1203;103062;-73
2021/04/24 09:41:31;;;;;;;8.55;3.25;;;;;;;15.79;45.80;99594.32;114923;1201;103065;-69
2021/04/24 09:44:02;;;;;;;8.70;2.90;;;;;;;16.13;45.16;99587.86;114839;1202;103249;-74
2021/04/24 09:46:54;;;;;;;7.83;2.97;;;;;;;16.33;45.15;99576.23;114934;1202;103229;-76
2021/04/24 09:49:28;;;;;;;6.23;2.70;;;;;;;16.50;45.27;99576.56;114819;1201;103044;-71
2021/04/24 09:52:02;;;;;;;6.40;2.90;;;;;;;16.57;45.45;99575.00;114856;1203;103049;-75
2021/04/24 09:54:33;;;;;;;9.07;2.90;;;;;;;16.22;45.48;99571.81;114688;1202;103274;-75
2021/04/24 09:57:10;;;;;;;9.65;2.90;;;;;;;15.74;45.19;99577.77;114812;1202;103095;-74
2021/04/24 10:00:00;;;;;;;8.45;3.00;;;;;;;15.22;45.24;99581.23;114910;1203;103038;-75
2021/04/24 10:02:39;;;;;;;7.23;2.67;;;;;;;14.74;45.17;99575.31;114859;1201;103152;-73
2021/04/24 10:05:16;;;;;;;6.85;2.60;;;;;;;14.54;45.32;99578.75;114898;1203;101941;-74
2021/04/24 10:07:46;;;;;;;8.55;2.70;;;;;;;14.28;44.78;99577.20;114853;1203;103075;-72
2021/04/24 10:10:17;;;;;;;6.30;2.70;;;;;;;13.98;44.69;99576.01;114912;1203;103117;-75
2021/04/24 10:13:08;;;;;;;6.73;2.67;;;;;;;13.72;44.45;99567.35;114857;1203;103477;-72
2021/04/24 10:15:47;;;;;;;6.60;2.65;;;;;;;13.41;44.20;99569.73;114769;1201;103069;-74
2021/04/24 10:18:16;;;;;;;6.20;2.30;;;;;;;13.26;44.03;99571.70;114945;1201;103037;-78
2021/04/24 10:20:47;;;;;;;8.50;2.70;;;;;;;13.10;43.88;99572.01;114948;1203;103638;-74
2021/04/24 10:23:16;;;;;;;4.20;2.60;;;;;;;13.01;44.15;99576.23;114717;1203;103233;-75
2021/04/24 10:25:46;;;;;;;9.60;2.40;;;;;;;12.82;43.73;99571.41;114952;1203;104719;-73
2021/04/24 10:28:16;;;;;;;7.40;2.50;;;;;;;12.64;43.45;99555.78;114990;1201;101969;-75
2021/04/24 10:30:43;;;;;;;6.65;2.45;;;;;;;12.45;43.70;99558.11;114966;1203;103651;-75
2021/04/24 10:33:13;;;;;;;6.10;2.47;;;;;;;12.34;43.47;99561.56;114885;1203;103145;-78
2021/04/24 10:35:40;;;;;;;6.60;2.20;;;;;;;12.35;43.59;99550.77;114815;1202;103599;-80
2021/04/24 10:38:08;;;;;;;7.90;3.10;;;;;;;12.31;43.48;99548.45;114958;1201;103303;-74
2021/04/24 10:40:45;;;;;;;9.60;2.70;;;;;;;12.32;43.45;99552.81;114913;1202;103113;-74
2021/04/24 10:43:23;;;;;;;8.65;3.10;;;;;;;12.24;43.59;99557.84;114945;1203;103040;-83
2021/04/24 10:45:51;;;;;;;8.00;2.90;;;;;;;12.12;43.47;99556.92;114937;1201;103085;-72
2021/04/24 10:48:24;;;;;;;7.83;3.00;;;;;;;12.03;43.01;99561.06;114940;1203;103146;-72
2021/04/24 10:50:52;;;;;;;8.68;3.00;;;;;;;11.82;43.05;99552.77;114927;1203;103504;-74
2021/04/24 10:53:37;;;;;;;9.35;3.30;;;;;;;11.62;42.71;99566.50;114841;1202;103175;-75
2021/04/24 10:56:04;;;;;;;6.30;2.50;;;;;;;11.31;42.88;99552.63;114894;1202;103078;-76
2021/04/24 10:58:32;;;;;;;6.15;2.50;;;;;;;11.21;43.03;99553.37;114882;1203;103197;-81
2021/04/24 11:01:06;;;;;;;7.40;3.30;;;;;;;11.18;42.84;99559.77;114909;1203;103177;-76
2021/04/24 11:03:52;;;;;;;6.67;2.60;;;;;;;11.13;42.91;99553.89;114934;1203;103043;-78
2021/04/24 11:06:23;;;;;;;9.43;3.00;;;;;;;11.09;42.78;99553.23;114883;1202;102871;-79
2021/04/24 11:09:18;;;;;;;9.20;3.50;;;;;;;11.02;42.69;99557.25;114921;1201;103149;-74
2021/04/24 11:11:49;;;;;;;7.80;2.50;;;;;;;10.89;42.64;99553.72;114875;1201;103114;-76
2021/04/24 11:14:19;;;;;;;7.10;2.90;;;;;;;10.81;42.54;99563.06;114904;1202;101353;-79
2021/04/24 11:16:46;;;;;;;8.80;2.33;;;;;;;10.73;42.32;99554.72;114710;1203;103185;-77
2021/04/24 11:19:45;;;;;;;7.37;2.97;;;;;;;10.63;42.25;99553.61;114877;1203;103155;-78
2021/04/24 11:22:32;;;;;;;7.77;3.20;;;;;;;10.61;42.44;99560.84;114974;1203;103072;-81